West Henrietta, NY (14586)

10:03 PM EDT on August 28, 2015 (GMT -0400)
West Henrietta | | Change Station
CLOSE
Current Station
Personal Weather Station
Location: West Henrietta, NY
Elevation: 597 ft
Nearby Weather Stations

Elev 597 ft 43.04 °N, 77.67 °W | Updated 3 minutes ago

Partly Cloudy
Partly Cloudy
62.6 °F
Feels Like 62.6 °F
N
0.0
Wind Variable Wind from ENE
Gusts 6.0 mph

Today
High -- | Low -- °F
--% Chance of Precip.
Yesterday
High -- | Low -- °F
Precip. -- in
6:30 AM 7:52 PM
Waxing Gibbous, 99% visible
Pressure 30.21 in
Visibility 10.0 miles
Clouds Scattered Clouds 25000 ft
Dew Point 58 °F
Humidity 86%
Rainfall 0.00 in
Snow Depth Not available.
UV 0 out of 12
Pollen 9.70 out of 12
Air Quality Not available.
Flu Activity Not available.
METAR KROC 290154Z 12003KT 10SM SCT250 18/13 A3020 RMK AO2 SLP228 T01780133
Pressure 30.21 in
Visibility 10.0 miles
Clouds Scattered Clouds 25000 ft
Dew Point 58 °F
Humidity 86%
Rainfall 0.00 in
Snow Depth Not available.
UV 0 out of 12
Pollen 9.70 out of 12
Air Quality Not available.
Flu Activity Not available.
METAR KROC 290154Z 12003KT 10SM SCT250 18/13 A3020 RMK AO2 SLP228 T01780133

10-Day Weather Forecast

×

Almanac

Astronomy

Aug. 28, 2015 Rise Set
Actual Time
Civil Twilight
Nautical Twilight
Astronomical Twilight
Moon
Length of Visible Light
Length of Day
Tomorrow will be .
, % of the Moon is Illuminated

Today's Extremes

State Highs State Lows

Community

WunderPhotos

Upload Photos

1,850,566 photos uploaded!

WunderBlogs® & News

Nearby

Air Quality

  Air Quality AQ Index Pollutant
Not available.

Snow Depth

Station Depth Elevation

Earthquake Activity

City Distance Mag. Time & Date
Minimum magnitude displayed is 2.5.

Coastal Water Temperatures

Place Temperature

Stations

Nearby Weather Stations

Station Location Temp. Windchill Dew Point Humidity Wind Precip. Elev Updated Type